sensor_id;sensor_type;location;lat;lon;timestamp;pressure;altitude;pressure_sealevel;temperature;humidity
1616;BME280;801;47.982;7.810;2023-04-01T00:01:39;97615.97;;;8.29;100.00
1616;BME280;801;47.982;7.810;2023-04-01T00:04:05;97615.44;;;8.27;100.00
1616;BME280;801;47.982;7.810;2023-04-01T00:06:32;97602.34;;;8.30;100.00
1616;BME280;801;47.982;7.810;2023-04-01T00:08:58;97599.91;;;8.19;100.00
1616;BME280;801;47.982;7.810;2023-04-01T00:11:25;97596.41;;;8.39;100.00
1616;BME280;801;47.982;7.810;2023-04-01T00:13:53;97580.66;;;8.27;100.00
1616;BME280;801;47.982;7.810;2023-04-01T00:16:19;97584.09;;;8.32;100.00
1616;BME280;801;47.982;7.810;2023-04-01T00:18:48;97594.84;;;8.22;100.00
1616;BME280;801;47.982;7.810;2023-04-01T00:21:15;97599.66;;;8.25;100.00
1616;BME280;801;47.982;7.810;2023-04-01T00:23:42;97607.69;;;8.30;100.00
1616;BME280;801;47.982;7.810;2023-04-01T00:26:09;97579.31;;;8.40;100.00
1616;BME280;801;47.982;7.810;2023-04-01T00:28:37;97578.47;;;8.39;100.00
1616;BME280;801;47.982;7.810;2023-04-01T00:31:05;97585.44;;;8.50;100.00
1616;BME280;801;47.982;7.810;2023-04-01T00:33:32;97575.31;;;8.42;100.00
1616;BME280;801;47.982;7.810;2023-04-01T00:36:07;97592.97;;;8.54;100.00
1616;BME280;801;47.982;7.810;2023-04-01T00:38:35;97565.63;;;8.57;100.00
1616;BME280;801;47.982;7.810;2023-04-01T00:41:02;97566.72;;;8.56;100.00
1616;BME280;801;47.982;7.810;2023-04-01T00:43:29;97572.59;;;8.52;100.00
1616;BME280;801;47.982;7.810;2023-04-01T00:45:56;97569.09;;;8.57;100.00
1616;BME280;801;47.982;7.810;2023-04-01T00:48:26;97596.16;;;8.50;100.00
1616;BME280;801;47.982;7.810;2023-04-01T00:50:55;97586.78;;;8.58;100.00
1616;BME280;801;47.982;7.810;2023-04-01T00:53:26;97584.13;;;8.53;100.00
1616;BME280;801;47.982;7.810;2023-04-01T00:55:57;97574.44;;;8.67;100.00
1616;BME280;801;47.982;7.810;2023-04-01T00:58:29;97581.88;;;8.86;100.00
1616;BME280;801;47.982;7.810;2023-04-01T01:00:59;97583.22;;;8.83;100.00
1616;BME280;801;47.982;7.810;2023-04-01T01:03:26;97591.81;;;8.75;100.00
1616;BME280;801;47.982;7.810;2023-04-01T01:06:03;97589.97;;;8.76;100.00
1616;BME280;801;47.982;7.810;2023-04-01T01:08:47;97579.50;;;8.74;100.00
1616;BME280;801;47.982;7.810;2023-04-01T01:11:22;97589.13;;;8.75;100.00
1616;BME280;801;47.982;7.810;2023-04-01T01:13:58;97566.09;;;8.84;100.00
1616;BME280;801;47.982;7.810;2023-04-01T01:16:30;97571.75;;;8.78;100.00
1616;BME280;801;47.982;7.810;2023-04-01T01:19:04;97546.06;;;8.66;100.00
1616;BME280;801;47.982;7.810;2023-04-01T01:21:48;97559.16;;;8.78;100.00
1616;BME280;801;47.982;7.810;2023-04-01T01:24:33;97554.84;;;8.82;100.00
1616;BME280;801;47.982;7.810;2023-04-01T01:27:08;97543.34;;;8.77;100.00
1616;BME280;801;47.982;7.810;2023-04-01T01:29:58;97549.47;;;8.87;100.00
1616;BME280;801;47.982;7.810;2023-04-01T01:32:49;97560.19;;;8.77;100.00
1616;BME280;801;47.982;7.810;2023-04-01T01:35:26;97546.25;;;8.85;100.00
1616;BME280;801;47.982;7.810;2023-04-01T01:37:56;97580.03;;;8.86;100.00
1616;BME280;801;47.982;7.810;2023-04-01T01:40:25;97568.72;;;8.94;100.00
1616;BME280;801;47.982;7.810;2023-04-01T01:42:55;97573.53;;;8.98;100.00
1616;BME280;801;47.982;7.810;2023-04-01T01:45:25;97568.97;;;8.98;100.00
1616;BME280;801;47.982;7.810;2023-04-01T01:47:52;97566.81;;;9.00;100.00
1616;BME280;801;47.982;7.810;2023-04-01T01:50:21;97577.78;;;9.04;100.00
1616;BME280;801;47.982;7.810;2023-04-01T01:52:50;97571.38;;;9.00;100.00
1616;BME280;801;47.982;7.810;2023-04-01T01:55:27;97579.91;;;9.12;100.00
1616;BME280;801;47.982;7.810;2023-04-01T01:57:55;97583.91;;;9.14;100.00
1616;BME280;801;47.982;7.810;2023-04-01T02:00:22;97586.31;;;9.16;100.00
1616;BME280;801;47.982;7.810;2023-04-01T02:02:50;97585.25;;;9.12;100.00
1616;BME280;801;47.982;7.810;2023-04-01T02:05:19;97611.53;;;9.10;100.00
1616;BME280;801;47.982;7.810;2023-04-01T02:07:51;97560.66;;;9.05;100.00
1616;BME280;801;47.982;7.810;2023-04-01T02:10:25;97585.00;;;9.08;100.00
1616;BME280;801;47.982;7.810;2023-04-01T02:12:57;97569.19;;;9.12;100.00
1616;BME280;801;47.982;7.810;2023-04-01T02:15:27;97582.38;;;8.98;100.00
1616;BME280;801;47.982;7.810;2023-04-01T02:17:56;97564.97;;;8.96;100.00
1616;BME280;801;47.982;7.810;2023-04-01T02:20:23;97563.88;;;8.97;100.00
1616;BME280;801;47.982;7.810;2023-04-01T02:22:53;97569.78;;;8.99;100.00
1616;BME280;801;47.982;7.810;2023-04-01T02:25:24;97565.25;;;8.94;100.00
1616;BME280;801;47.982;7.810;2023-04-01T02:27:51;97574.56;;;9.02;100.00
1616;BME280;801;47.982;7.810;2023-04-01T02:30:19;97570.63;;;8.89;100.00
1616;BME280;801;47.982;7.810;2023-04-01T02:32:46;97554.84;;;8.77;100.00
1616;BME280;801;47.982;7.810;2023-04-01T02:35:15;97559.66;;;8.75;100.00
1616;BME280;801;47.982;7.810;2023-04-01T02:37:43;97568.28;;;8.67;100.00
1616;BME280;801;47.982;7.810;2023-04-01T02:40:14;97559.19;;;8.63;100.00
1616;BME280;801;47.982;7.810;2023-04-01T02:42:41;97554.13;;;8.51;100.00
1616;BME280;801;47.982;7.810;2023-04-01T02:45:09;97588.94;;;8.46;100.00
1616;BME280;801;47.982;7.810;2023-04-01T02:47:35;97575.00;;;8.39;100.00
1616;BME280;801;47.982;7.810;2023-04-01T02:50:02;97566.47;;;8.42;100.00
1616;BME280;801;47.982;7.810;2023-04-01T02:52:29;97562.44;;;8.34;100.00
1616;BME280;801;47.982;7.810;2023-04-01T02:54:56;97557.09;;;8.44;100.00
1616;BME280;801;47.982;7.810;2023-04-01T02:57:24;97564.03;;;8.50;100.00
1616;BME280;801;47.982;7.810;2023-04-01T02:59:51;97565.09;;;8.39;100.00
1616;BME280;801;47.982;7.810;2023-04-01T03:02:18;97568.88;;;8.33;100.00
1616;BME280;801;47.982;7.810;2023-04-01T03:04:44;97567.78;;;8.39;100.00
1616;BME280;801;47.982;7.810;2023-04-01T03:07:11;97560.03;;;8.38;100.00
1616;BME280;801;47.982;7.810;2023-04-01T03:09:38;97572.09;;;8.25;100.00
1616;BME280;801;47.982;7.810;2023-04-01T03:12:05;97562.72;;;8.38;100.00
1616;BME280;801;47.982;7.810;2023-04-01T03:14:33;97565.09;;;8.34;100.00
1616;BME280;801;47.982;7.810;2023-04-01T03:16:59;97566.19;;;8.38;100.00
1616;BME280;801;47.982;7.810;2023-04-01T03:19:26;97571.28;;;8.24;100.00
1616;BME280;801;47.982;7.810;2023-04-01T03:21:52;97568.59;;;8.29;100.00
1616;BME280;801;47.982;7.810;2023-04-01T03:24:19;97586.53;;;8.34;100.00
1616;BME280;801;47.982;7.810;2023-04-01T03:26:46;97599.94;;;8.29;100.00
1616;BME280;801;47.982;7.810;2023-04-01T03:29:12;97584.13;;;8.43;100.00
1616;BME280;801;47.982;7.810;2023-04-01T03:31:42;97591.88;;;8.34;100.00
1616;BME280;801;47.982;7.810;2023-04-01T03:34:08;97587.59;;;8.28;100.00
1616;BME280;801;47.982;7.810;2023-04-01T03:36:35;97594.28;;;8.25;100.00
1616;BME280;801;47.982;7.810;2023-04-01T03:39:01;97613.84;;;8.21;100.00
1616;BME280;801;47.982;7.810;2023-04-01T03:41:29;97620.81;;;8.22;100.00
1616;BME280;801;47.982;7.810;2023-04-01T03:43:55;97586.56;;;8.24;100.00
1616;BME280;801;47.982;7.810;2023-04-01T03:46:22;97584.94;;;8.23;100.00
1616;BME280;801;47.982;7.810;2023-04-01T03:48:50;97568.31;;;8.26;100.00
1616;BME280;801;47.982;7.810;2023-04-01T03:51:16;97576.91;;;8.18;100.00
1616;BME280;801;47.982;7.810;2023-04-01T03:53:43;97550.97;;;8.08;100.00
1616;BME280;801;47.982;7.810;2023-04-01T03:56:09;97534.38;;;8.11;100.00
1616;BME280;801;47.982;7.810;2023-04-01T03:58:36;97551.50;;;8.05;100.00
1616;BME280;801;47.982;7.810;2023-04-01T04:01:13;97576.91;;;8.07;100.00
1616;BME280;801;47.982;7.810;2023-04-01T04:03:39;97559.78;;;8.19;100.00
1616;BME280;801;47.982;7.810;2023-04-01T04:06:10;97558.19;;;8.07;100.00
1616;BME280;801;47.982;7.810;2023-04-01T04:08:37;97592.97;;;8.18;100.00
1616;BME280;801;47.982;7.810;2023-04-01T04:11:04;97578.78;;;8.22;100.00
1616;BME280;801;47.982;7.810;2023-04-01T04:13:30;97582.28;;;8.18;100.00
1616;BME280;801;47.982;7.810;2023-04-01T04:15:58;97549.59;;;8.21;100.00
1616;BME280;801;47.982;7.810;2023-04-01T04:18:24;97554.16;;;8.20;100.00
1616;BME280;801;47.982;7.810;2023-04-01T04:20:51;97580.13;;;8.25;100.00
1616;BME280;801;47.982;7.810;2023-04-01T04:23:19;97552.81;;;8.33;100.00
1616;BME280;801;47.982;7.810;2023-04-01T04:25:53;97555.47;;;8.28;100.00
1616;BME280;801;47.982;7.810;2023-04-01T04:28:20;97511.88;;;8.22;100.00
1616;BME280;801;47.982;7.810;2023-04-01T04:30:46;97563.53;;;8.23;100.00
1616;BME280;801;47.982;7.810;2023-04-01T04:33:13;97550.66;;;8.30;100.00
1616;BME280;801;47.982;7.810;2023-04-01T04:35:39;97541.31;;;8.43;100.00
1616;BME280;801;47.982;7.810;2023-04-01T04:38:06;97526.03;;;8.33;100.00
1616;BME280;801;47.982;7.810;2023-04-01T04:40:35;97536.22;;;8.26;100.00
1616;BME280;801;47.982;7.810;2023-04-01T04:43:02;97555.22;;;8.19;100.00
1616;BME280;801;47.982;7.810;2023-04-01T04:45:29;97552.28;;;8.21;100.00
1616;BME280;801;47.982;7.810;2023-04-01T04:47:55;97551.75;;;8.29;100.00
1616;BME280;801;47.982;7.810;2023-04-01T04:50:22;97522.56;;;8.27;100.00
1616;BME280;801;47.982;7.810;2023-04-01T04:52:49;97521.72;;;8.37;100.00
1616;BME280;801;47.982;7.810;2023-04-01T04:55:16;97543.97;;;8.27;100.00
1616;BME280;801;47.982;7.810;2023-04-01T04:57:44;97530.84;;;8.51;100.00
1616;BME280;801;47.982;7.810;2023-04-01T05:00:11;97531.38;;;8.43;100.00
1616;BME280;801;47.982;7.810;2023-04-01T05:02:37;97532.97;;;8.55;100.00
1616;BME280;801;47.982;7.810;2023-04-01T05:05:05;97545.81;;;8.58;100.00
1616;BME280;801;47.982;7.810;2023-04-01T05:07:32;97512.63;;;8.54;100.00
1616;BME280;801;47.982;7.810;2023-04-01T05:09:59;97542.09;;;8.54;100.00
1616;BME280;801;47.982;7.810;2023-04-01T05:12:26;97536.72;;;8.54;100.00
1616;BME280;801;47.982;7.810;2023-04-01T05:14:53;97536.69;;;8.59;100.00
1616;BME280;801;47.982;7.810;2023-04-01T05:17:20;97530.81;;;8.57;100.00
1616;BME280;801;47.982;7.810;2023-04-01T05:19:46;97527.91;;;8.53;100.00
1616;BME280;801;47.982;7.810;2023-04-01T05:22:13;97501.66;;;8.55;100.00
1616;BME280;801;47.982;7.810;2023-04-01T05:24:39;97531.06;;;8.65;100.00
1616;BME280;801;47.982;7.810;2023-04-01T05:27:06;97539.66;;;8.62;100.00
1616;BME280;801;47.982;7.810;2023-04-01T05:29:32;97543.66;;;8.65;100.00
1616;BME280;801;47.982;7.810;2023-04-01T05:32:01;97542.03;;;8.64;100.00
1616;BME280;801;47.982;7.810;2023-04-01T05:34:28;97496.50;;;8.64;100.00
1616;BME280;801;47.982;7.810;2023-04-01T05:36:54;97531.31;;;8.69;100.00
1616;BME280;801;47.982;7.810;2023-04-01T05:39:21;97517.63;;;8.76;100.00
1616;BME280;801;47.982;7.810;2023-04-01T05:41:48;97542.56;;;8.66;100.00
1616;BME280;801;47.982;7.810;2023-04-01T05:44:15;97523.53;;;8.72;100.00
1616;BME280;801;47.982;7.810;2023-04-01T05:46:41;97510.94;;;8.78;100.00
1616;BME280;801;47.982;7.810;2023-04-01T05:49:09;97522.72;;;8.72;100.00
1616;BME280;801;47.982;7.810;2023-04-01T05:51:36;97517.09;;;8.68;100.00
1616;BME280;801;47.982;7.810;2023-04-01T05:54:04;97511.50;;;8.70;100.00
1616;BME280;801;47.982;7.810;2023-04-01T05:56:30;97515.72;;;8.81;100.00
1616;BME280;801;47.982;7.810;2023-04-01T05:58:56;97503.16;;;8.77;100.00
1616;BME280;801;47.982;7.810;2023-04-01T06:01:23;97508.75;;;8.85;100.00
1616;BME280;801;47.982;7.810;2023-04-01T06:03:50;97494.28;;;8.81;100.00
1616;BME280;801;47.982;7.810;2023-04-01T06:06:23;97515.19;;;8.84;100.00
1616;BME280;801;47.982;7.810;2023-04-01T06:08:51;97513.53;;;8.93;100.00
1616;BME280;801;47.982;7.810;2023-04-01T06:11:23;97529.13;;;8.81;100.00
1616;BME280;801;47.982;7.810;2023-04-01T06:14:10;97518.91;;;8.93;100.00
1616;BME280;801;47.982;7.810;2023-04-01T06:16:53;97516.72;;;9.01;100.00
1616;BME280;801;47.982;7.810;2023-04-01T06:19:31;97508.72;;;8.90;100.00
1616;BME280;801;47.982;7.810;2023-04-01T06:22:12;97523.19;;;8.89;100.00
1616;BME280;801;47.982;7.810;2023-04-01T06:24:55;97528.56;;;8.89;100.00
1616;BME280;801;47.982;7.810;2023-04-01T06:27:39;97542.22;;;8.88;100.00
1616;BME280;801;47.982;7.810;2023-04-01T06:33:15;97519.13;;;8.97;100.00
1616;BME280;801;47.982;7.810;2023-04-01T06:35:58;97525.31;;;8.98;100.00
1616;BME280;801;47.982;7.810;2023-04-01T06:38:43;97508.72;;;8.96;100.00
1616;BME280;801;47.982;7.810;2023-04-01T06:41:21;97493.66;;;9.00;100.00
1616;BME280;801;47.982;7.810;2023-04-01T06:43:56;97520.47;;;8.94;100.00
1616;BME280;801;47.982;7.810;2023-04-01T06:46:32;97506.03;;;8.96;100.00
1616;BME280;801;47.982;7.810;2023-04-01T06:49:17;97508.66;;;9.01;100.00
1616;BME280;801;47.982;7.810;2023-04-01T06:51:52;97544.34;;;8.96;100.00
1616;BME280;801;47.982;7.810;2023-04-01T06:54:29;97513.25;;;9.00;100.00
1616;BME280;801;47.982;7.810;2023-04-01T06:57:02;97517.16;;;9.18;100.00
1616;BME280;801;47.982;7.810;2023-04-01T06:59:32;97513.75;;;9.02;100.00
1616;BME280;801;47.982;7.810;2023-04-01T07:02:06;97520.97;;;9.02;100.00
1616;BME280;801;47.982;7.810;2023-04-01T07:04:44;97530.06;;;9.11;100.00
1616;BME280;801;47.982;7.810;2023-04-01T07:07:14;97527.13;;;9.07;100.00
1616;BME280;801;47.982;7.810;2023-04-01T07:09:49;97513.69;;;9.18;100.00
1616;BME280;801;47.982;7.810;2023-04-01T07:12:22;97506.47;;;9.08;100.00
1616;BME280;801;47.982;7.810;2023-04-01T07:14:54;97517.69;;;9.20;100.00
1616;BME280;801;47.982;7.810;2023-04-01T07:17:24;97526.25;;;9.17;100.00
1616;BME280;801;47.982;7.810;2023-04-01T07:19:56;97512.00;;;9.27;100.00
1616;BME280;801;47.982;7.810;2023-04-01T07:22:29;97522.22;;;9.20;100.00
1616;BME280;801;47.982;7.810;2023-04-01T07:25:02;97512.59;;;9.19;100.00
1616;BME280;801;47.982;7.810;2023-04-01T07:27:28;97525.63;;;9.35;100.00
1616;BME280;801;47.982;7.810;2023-04-01T07:29:56;97499.94;;;9.29;100.00
1616;BME280;801;47.982;7.810;2023-04-01T07:32:32;97515.41;;;9.38;100.00
1616;BME280;801;47.982;7.810;2023-04-01T07:35:23;97522.50;;;9.18;100.00
1616;BME280;801;47.982;7.810;2023-04-01T07:38:17;97525.03;;;9.44;100.00
1616;BME280;801;47.982;7.810;2023-04-01T07:40:54;97528.53;;;9.39;100.00
1616;BME280;801;47.982;7.810;2023-04-01T07:43:37;97549.19;;;9.39;100.00
1616;BME280;801;47.982;7.810;2023-04-01T07:46:14;97548.97;;;9.30;100.00
1616;BME280;801;47.982;7.810;2023-04-01T07:48:52;97558.06;;;9.34;100.00
1616;BME280;801;47.982;7.810;2023-04-01T07:51:24;97541.72;;;9.30;100.00
1616;BME280;801;47.982;7.810;2023-04-01T07:53:58;97551.63;;;9.35;100.00
1616;BME280;801;47.982;7.810;2023-04-01T07:56:33;97540.63;;;9.37;100.00
1616;BME280;801;47.982;7.810;2023-04-01T07:59:09;97548.66;;;9.37;100.00
1616;BME280;801;47.982;7.810;2023-04-01T08:01:49;97559.91;;;9.39;100.00
1616;BME280;801;47.982;7.810;2023-04-01T08:04:33;97551.00;;;9.53;100.00
1616;BME280;801;47.982;7.810;2023-04-01T08:07:07;97550.25;;;9.43;100.00
1616;BME280;801;47.982;7.810;2023-04-01T08:09:42;97555.63;;;9.38;100.00
1616;BME280;801;47.982;7.810;2023-04-01T08:12:21;97574.88;;;9.50;100.00
1616;BME280;801;47.982;7.810;2023-04-01T08:15:01;97558.81;;;9.45;100.00
1616;BME280;801;47.982;7.810;2023-04-01T08:17:39;97562.50;;;9.54;100.00
1616;BME280;801;47.982;7.810;2023-04-01T08:20:21;97584.31;;;9.37;100.00
1616;BME280;801;47.982;7.810;2023-04-01T08:22:53;97586.16;;;9.42;100.00
1616;BME280;801;47.982;7.810;2023-04-01T08:25:25;97572.84;;;9.31;100.00
1616;BME280;801;47.982;7.810;2023-04-01T08:27:57;97567.91;;;9.49;100.00
1616;BME280;801;47.982;7.810;2023-04-01T08:30:27;97575.22;;;9.38;100.00
1616;BME280;801;47.982;7.810;2023-04-01T08:32:56;97569.47;;;9.55;100.00
1616;BME280;801;47.982;7.810;2023-04-01T08:35:28;97577.59;;;9.45;100.00
1616;BME280;801;47.982;7.810;2023-04-01T08:38:00;97569.47;;;9.55;100.00
1616;BME280;801;47.982;7.810;2023-04-01T08:40:39;97585.56;;;9.55;100.00
1616;BME280;801;47.982;7.810;2023-04-01T08:43:16;97595.19;;;9.61;100.00
1616;BME280;801;47.982;7.810;2023-04-01T08:46:17;97595.75;;;9.58;100.00
1616;BME280;801;47.982;7.810;2023-04-01T08:49:03;97576.09;;;9.68;100.00
1616;BME280;801;47.982;7.810;2023-04-01T08:51:48;97610.78;;;9.54;100.00
1616;BME280;801;47.982;7.810;2023-04-01T08:54:43;97614.69;;;9.72;100.00
1616;BME280;801;47.982;7.810;2023-04-01T08:57:16;97582.72;;;9.75;100.00
1616;BME280;801;47.982;7.810;2023-04-01T08:59:57;97593.72;;;9.79;100.00
1616;BME280;801;47.982;7.810;2023-04-01T09:08:35;97590.44;;;9.87;100.00
1616;BME280;801;47.982;7.810;2023-04-01T09:11:16;97600.81;;;9.99;100.00
1616;BME280;801;47.982;7.810;2023-04-01T09:13:56;97591.81;;;9.85;100.00
1616;BME280;801;47.982;7.810;2023-04-01T09:19:30;97592.84;;;9.89;100.00
1616;BME280;801;47.982;7.810;2023-04-01T09:22:12;97599.22;;;9.98;100.00
1616;BME280;801;47.982;7.810;2023-04-01T09:25:02;97626.72;;;9.80;100.00
1616;BME280;801;47.982;7.810;2023-04-01T09:27:34;97598.78;;;9.86;100.00
1616;BME280;801;47.982;7.810;2023-04-01T09:30:31;97591.72;;;9.95;100.00
1616;BME280;801;47.982;7.810;2023-04-01T09:33:32;97591.69;;;10.00;100.00
1616;BME280;801;47.982;7.810;2023-04-01T09:36:14;97604.56;;;10.03;100.00
1616;BME280;801;47.982;7.810;2023-04-01T09:38:55;97608.88;;;9.99;100.00
1616;BME280;801;47.982;7.810;2023-04-01T09:41:29;97633.03;;;9.99;100.00
1616;BME280;801;47.982;7.810;2023-04-01T09:44:02;97607.19;;;10.08;100.00
1616;BME280;801;47.982;7.810;2023-04-01T09:46:42;97618.41;;;10.15;100.00
1616;BME280;801;47.982;7.810;2023-04-01T09:49:48;97621.13;;;10.10;100.00
1616;BME280;801;47.982;7.810;2023-04-01T09:52:26;97613.06;;;10.10;100.00
1616;BME280;801;47.982;7.810;2023-04-01T09:55:06;97593.81;;;10.03;100.00
1616;BME280;801;47.982;7.810;2023-04-01T10:07:31;97634.28;;;10.12;100.00
1616;BME280;801;47.982;7.810;2023-04-01T10:10:28;97630.97;;;10.20;100.00
1616;BME280;801;47.982;7.810;2023-04-01T10:13:17;97635.00;;;10.23;100.00
1616;BME280;801;47.982;7.810;2023-04-01T10:16:05;97630.19;;;10.19;100.00
1616;BME280;801;47.982;7.810;2023-04-01T10:18:59;97645.81;;;10.12;100.00
1616;BME280;801;47.982;7.810;2023-04-01T10:25:07;97638.34;;;10.04;100.00
1616;BME280;801;47.982;7.810;2023-04-01T10:27:51;97655.97;;;10.15;100.00
1616;BME280;801;47.982;7.810;2023-04-01T10:31:05;97653.09;;;10.07;100.00
1616;BME280;801;47.982;7.810;2023-04-01T10:36:54;97647.72;;;10.07;100.00
1616;BME280;801;47.982;7.810;2023-04-01T10:49:07;97637.81;;;10.07;100.00
1616;BME280;801;47.982;7.810;2023-04-01T10:52:03;97634.50;;;10.15;100.00
1616;BME280;801;47.982;7.810;2023-04-01T10:54:46;97647.22;;;10.05;100.00
1616;BME280;801;47.982;7.810;2023-04-01T10:57:31;97653.28;;;10.21;100.00
1616;BME280;801;47.982;7.810;2023-04-01T11:00:31;97686.03;;;10.17;100.00
1616;BME280;801;47.982;7.810;2023-04-01T11:10:07;97642.91;;;10.04;100.00
1616;BME280;801;47.982;7.810;2023-04-01T11:13:18;97663.03;;;10.06;100.00
1616;BME280;801;47.982;7.810;2023-04-01T11:16:23;97664.13;;;10.05;100.00
1616;BME280;801;47.982;7.810;2023-04-01T11:19:15;97643.19;;;10.07;100.00
1616;BME280;801;47.982;7.810;2023-04-01T11:22:00;97653.59;;;10.14;100.00
1616;BME280;801;47.982;7.810;2023-04-01T11:24:58;97668.13;;;10.08;100.00
1616;BME280;801;47.982;7.810;2023-04-01T11:27:44;97661.75;;;9.93;100.00
1616;BME280;801;47.982;7.810;2023-04-01T11:30:25;97655.03;;;10.01;100.00
1616;BME280;801;47.982;7.810;2023-04-01T11:33:00;97661.75;;;9.93;100.00
1616;BME280;801;47.982;7.810;2023-04-01T11:38:34;97650.81;;;9.90;100.00
1616;BME280;801;47.982;7.810;2023-04-01T11:41:15;97672.19;;;10.00;100.00
1616;BME280;801;47.982;7.810;2023-04-01T11:43:54;97666.59;;;9.96;100.00
1616;BME280;801;47.982;7.810;2023-04-01T11:46:34;97648.03;;;10.00;100.00
1616;BME280;801;47.982;7.810;2023-04-01T11:49:21;97650.22;;;9.98;100.00
1616;BME280;801;47.982;7.810;2023-04-01T11:55:25;97665.75;;;10.01;100.00
1616;BME280;801;47.982;7.810;2023-04-01T11:58:21;97641.56;;;10.06;100.00
1616;BME280;801;47.982;7.810;2023-04-01T12:01:02;97649.91;;;10.05;100.00
1616;BME280;801;47.982;7.810;2023-04-01T12:03:43;97644.75;;;10.08;100.00
1616;BME280;801;47.982;7.810;2023-04-01T12:06:16;97650.00;;;10.29;100.00
1616;BME280;801;47.982;7.810;2023-04-01T12:08:52;97656.50;;;10.17;100.00
1616;BME280;801;47.982;7.810;2023-04-01T12:11:28;97648.94;;;10.25;100.00
1616;BME280;801;47.982;7.810;2023-04-01T12:14:02;97669.88;;;10.28;100.00
1616;BME280;801;47.982;7.810;2023-04-01T12:16:41;97663.88;;;10.41;100.00
1616;BME280;801;47.982;7.810;2023-04-01T12:19:17;97660.66;;;10.39;100.00
1616;BME280;801;47.982;7.810;2023-04-01T12:21:56;97671.66;;;10.43;100.00
1616;BME280;801;47.982;7.810;2023-04-01T12:24:40;97655.22;;;10.49;100.00
1616;BME280;801;47.982;7.810;2023-04-01T12:27:21;97668.69;;;10.44;100.00
1616;BME280;801;47.982;7.810;2023-04-01T12:30:05;97656.03;;;10.45;100.00
1616;BME280;801;47.982;7.810;2023-04-01T12:32:40;97639.56;;;10.56;100.00
1616;BME280;801;47.982;7.810;2023-04-01T12:35:18;97651.53;;;10.69;100.00
1616;BME280;801;47.982;7.810;2023-04-01T12:37:54;97647.66;;;10.51;100.00
1616;BME280;801;47.982;7.810;2023-04-01T12:40:36;97653.75;;;10.62;100.00
1616;BME280;801;47.982;7.810;2023-04-01T12:43:24;97656.25;;;10.53;100.00
1616;BME280;801;47.982;7.810;2023-04-01T12:46:03;97644.81;;;10.67;100.00
1616;BME280;801;47.982;7.810;2023-04-01T12:49:09;97646.59;;;10.52;100.00
1616;BME280;801;47.982;7.810;2023-04-01T12:52:05;97644.38;;;10.59;100.00
1616;BME280;801;47.982;7.810;2023-04-01T12:55:00;97640.16;;;10.77;100.00
1616;BME280;801;47.982;7.810;2023-04-01T12:57:46;97638.28;;;10.78;100.00
1616;BME280;801;47.982;7.810;2023-04-01T13:00:30;97639.50;;;10.62;100.00
1616;BME280;801;47.982;7.810;2023-04-01T13:03:16;97657.72;;;10.70;100.00
1616;BME280;801;47.982;7.810;2023-04-01T13:06:11;97649.16;;;10.63;100.00
1616;BME280;801;47.982;7.810;2023-04-01T13:08:45;97670.66;;;10.63;100.00
1616;BME280;801;47.982;7.810;2023-04-01T13:11:20;97641.28;;;10.71;100.00
1616;BME280;801;47.982;7.810;2023-04-01T13:14:15;97651.50;;;10.74;100.00
1616;BME280;801;47.982;7.810;2023-04-01T13:16:51;97650.69;;;10.98;100.00
1616;BME280;801;47.982;7.810;2023-04-01T13:19:25;97664.06;;;10.79;100.00
1616;BME280;801;47.982;7.810;2023-04-01T13:21:59;97669.38;;;10.84;100.00
1616;BME280;801;47.982;7.810;2023-04-01T13:24:40;97658.03;;;10.92;100.00
1616;BME280;801;47.982;7.810;2023-04-01T13:27:14;97656.75;;;10.85;100.00
1616;BME280;801;47.982;7.810;2023-04-01T13:29:48;97661.31;;;10.84;100.00
1616;BME280;801;47.982;7.810;2023-04-01T13:32:29;97661.31;;;10.84;100.00
1616;BME280;801;47.982;7.810;2023-04-01T13:35:16;97653.09;;;10.99;100.00
1616;BME280;801;47.982;7.810;2023-04-01T13:37:52;97661.28;;;11.13;100.00
1616;BME280;801;47.982;7.810;2023-04-01T13:40:39;97652.25;;;11.04;100.00
1616;BME280;801;47.982;7.810;2023-04-01T13:43:12;97634.47;;;11.08;100.00
1616;BME280;801;47.982;7.810;2023-04-01T13:45:55;97656.19;;;11.12;100.00
1616;BME280;801;47.982;7.810;2023-04-01T13:48:46;97638.53;;;11.49;100.00
1616;BME280;801;47.982;7.810;2023-04-01T13:57:27;97638.56;;;11.68;100.00
1616;BME280;801;47.982;7.810;2023-04-01T14:00:35;97633.31;;;11.76;100.00
1616;BME280;801;47.982;7.810;2023-04-01T14:03:42;97637.53;;;11.82;100.00
1616;BME280;801;47.982;7.810;2023-04-01T14:06:20;97630.03;;;11.79;100.00
1616;BME280;801;47.982;7.810;2023-04-01T14:09:06;97632.03;;;11.93;100.00
1616;BME280;801;47.982;7.810;2023-04-01T14:11:39;97624.53;;;11.90;100.00
1616;BME280;801;47.982;7.810;2023-04-01T14:14:18;97622.13;;;12.07;100.00
1616;BME280;801;47.982;7.810;2023-04-01T14:17:06;97625.22;;;12.14;100.00
1616;BME280;801;47.982;7.810;2023-04-01T14:20:02;97627.34;;;11.98;100.00
1616;BME280;801;47.982;7.810;2023-04-01T14:22:38;97637.84;;;12.00;100.00
1616;BME280;801;47.982;7.810;2023-04-01T14:25:25;97640.63;;;11.95;100.00
1616;BME280;801;47.982;7.810;2023-04-01T14:28:02;97640.41;;;11.91;100.00
1616;BME280;801;47.982;7.810;2023-04-01T14:30:41;97643.94;;;11.25;100.00
1616;BME280;801;47.982;7.810;2023-04-01T14:33:23;97663.41;;;11.16;100.00
1616;BME280;801;47.982;7.810;2023-04-01T14:36:07;97644.31;;;10.65;100.00
1616;BME280;801;47.982;7.810;2023-04-01T14:38:52;97658.72;;;10.10;100.00
1616;BME280;801;47.982;7.810;2023-04-01T14:41:35;97647.84;;;10.31;100.00
1616;BME280;801;47.982;7.810;2023-04-01T14:47:07;97647.75;;;10.41;100.00
1616;BME280;801;47.982;7.810;2023-04-01T14:49:37;97649.03;;;10.78;100.00
1616;BME280;801;47.982;7.810;2023-04-01T14:52:11;97648.63;;;10.66;100.00
1616;BME280;801;47.982;7.810;2023-04-01T14:54:41;97641.44;;;11.09;100.00
1616;BME280;801;47.982;7.810;2023-04-01T14:57:11;97646.25;;;11.12;100.00
1616;BME280;801;47.982;7.810;2023-04-01T14:59:47;97640.00;;;11.17;100.00
1616;BME280;801;47.982;7.810;2023-04-01T15:02:33;97662.03;;;11.19;100.00
1616;BME280;801;47.982;7.810;2023-04-01T15:05:13;97661.56;;;11.12;100.00
1616;BME280;801;47.982;7.810;2023-04-01T15:07:59;97647.06;;;11.32;100.00
1616;BME280;801;47.982;7.810;2023-04-01T15:10:55;97648.59;;;11.62;100.00
1616;BME280;801;47.982;7.810;2023-04-01T15:13:44;97659.63;;;11.41;100.00
1616;BME280;801;47.982;7.810;2023-04-01T15:16:19;97642.09;;;11.44;100.00